createdAt,value
2022-08-17T00:01:56.503Z,6.90
2022-08-17T00:03:58.888Z,6.03
2022-08-17T00:06:13.638Z,6.83
2022-08-17T00:08:18.518Z,6.60
2022-08-17T00:10:26.220Z,6.30
2022-08-17T00:12:41.620Z,6.63
2022-08-17T00:14:50.424Z,6.93
2022-08-17T00:16:57.634Z,6.87
2022-08-17T00:19:08.032Z,6.33
2022-08-17T00:21:11.509Z,6.50
2022-08-17T00:23:16.123Z,6.30
2022-08-17T00:25:20.133Z,6.43
2022-08-17T00:27:22.357Z,7.23
2022-08-17T00:29:24.532Z,6.80
2022-08-17T00:31:26.763Z,7.20
2022-08-17T00:33:31.671Z,7.50
2022-08-17T00:35:34.343Z,7.50
2022-08-17T00:37:36.523Z,7.20
2022-08-17T00:39:38.713Z,6.20
2022-08-17T00:41:42.170Z,6.87
2022-08-17T00:43:46.005Z,6.83
2022-08-17T00:45:49.348Z,7.23
2022-08-17T00:47:51.518Z,6.93
2022-08-17T00:49:54.056Z,6.90
2022-08-17T00:52:00.675Z,6.80
2022-08-17T00:54:15.471Z,7.50
2022-08-17T00:56:22.709Z,6.30
2022-08-17T00:58:28.682Z,6.90
2022-08-17T01:00:43.687Z,7.00
2022-08-17T01:02:47.111Z,6.80
2022-08-17T01:04:51.288Z,7.40
2022-08-17T01:06:53.734Z,7.47
2022-08-17T01:08:57.387Z,7.70
2022-08-17T01:11:05.486Z,6.50
2022-08-17T01:13:07.805Z,7.20
2022-08-17T01:15:10.230Z,7.00
2022-08-17T01:17:12.455Z,7.70
2022-08-17T01:19:20.279Z,7.33
2022-08-17T01:21:41.068Z,6.80
2022-08-17T01:23:43.296Z,6.20
2022-08-17T01:25:45.686Z,6.63
2022-08-17T01:27:51.159Z,7.10
2022-08-17T01:29:58.675Z,7.67
2022-08-17T01:32:03.816Z,7.30
2022-08-17T01:34:08.712Z,7.00
2022-08-17T01:36:10.794Z,7.43
2022-08-17T01:38:12.853Z,6.97
2022-08-17T01:40:48.924Z,7.50
2022-08-17T01:43:03.883Z,7.37
2022-08-17T01:45:12.087Z,7.57
2022-08-17T01:47:14.352Z,7.30
2022-08-17T01:49:16.448Z,7.60
2022-08-17T01:51:19.099Z,8.97
2022-08-17T01:53:25.183Z,7.67
2022-08-17T01:55:36.255Z,8.10
2022-08-17T01:57:38.442Z,7.90
2022-08-17T01:59:40.506Z,7.20
2022-08-17T02:01:43.640Z,8.30
2022-08-17T02:03:56.135Z,7.80
2022-08-17T02:06:05.195Z,7.60
2022-08-17T02:08:07.649Z,7.30
2022-08-17T02:10:20.614Z,7.70
2022-08-17T02:12:38.497Z,7.97
2022-08-17T02:14:42.596Z,7.43
2022-08-17T02:16:44.721Z,7.80
2022-08-17T02:18:46.912Z,7.50
2022-08-17T02:20:49.229Z,7.50
2022-08-17T02:22:51.805Z,7.77
2022-08-17T02:24:59.869Z,8.20
2022-08-17T02:27:04.574Z,8.30
2022-08-17T02:29:07.815Z,8.87
2022-08-17T02:31:12.551Z,8.23
2022-08-17T02:33:15.052Z,8.30
2022-08-17T02:35:19.988Z,8.07
2022-08-17T02:37:25.714Z,7.90
2022-08-17T02:39:27.804Z,8.03
2022-08-17T02:41:30.485Z,8.33
2022-08-17T02:43:33.020Z,8.47
2022-08-17T02:45:36.199Z,8.90
2022-08-17T02:47:40.253Z,8.80
2022-08-17T02:49:46.306Z,8.37
2022-08-17T02:51:58.679Z,7.50
2022-08-17T02:54:40.537Z,7.93
2022-08-17T02:56:22.995Z,6.97
2022-08-17T02:58:34.798Z,8.03
2022-08-17T03:00:43.465Z,7.00
2022-08-17T03:02:45.795Z,6.97
2022-08-17T03:04:47.967Z,8.07
2022-08-17T03:06:50.013Z,8.60
2022-08-17T03:08:53.165Z,8.47
2022-08-17T03:10:55.647Z,9.33
2022-08-17T03:12:59.476Z,8.30
2022-08-17T03:15:06.415Z,8.10
2022-08-17T03:17:10.050Z,8.23
2022-08-17T03:19:12.713Z,8.90
2022-08-17T03:21:14.827Z,8.60
2022-08-17T03:23:16.863Z,9.20
2022-08-17T03:25:24.401Z,8.80
2022-08-17T03:27:26.455Z,8.50
2022-08-17T03:29:29.019Z,8.67
2022-08-17T03:31:31.566Z,7.93
2022-08-17T03:33:34.775Z,8.87
2022-08-17T03:35:37.863Z,8.90
2022-08-17T03:37:40.391Z,7.77
2022-08-17T03:39:43.147Z,8.17
2022-08-17T03:41:45.292Z,9.03
2022-08-17T03:43:47.283Z,8.70
2022-08-17T03:46:10.967Z,8.80
2022-08-17T03:48:48.740Z,8.00
2022-08-17T03:51:14.529Z,9.07
2022-08-17T03:53:36.198Z,8.67
2022-08-17T03:55:57.266Z,8.93
2022-08-17T03:57:59.337Z,9.70
2022-08-17T04:00:01.361Z,9.83
2022-08-17T04:02:20.490Z,8.10
2022-08-17T04:04:27.624Z,8.27
2022-08-17T04:06:30.143Z,8.63
2022-08-17T04:08:32.418Z,8.70
2022-08-17T04:10:41.961Z,8.60
2022-08-17T04:12:50.349Z,9.07
2022-08-17T04:14:54.781Z,9.17
2022-08-17T04:16:57.200Z,7.70
2022-08-17T04:18:59.272Z,9.53
2022-08-17T04:21:01.354Z,9.70
2022-08-17T04:23:10.573Z,8.70
2022-08-17T04:25:17.304Z,9.23
2022-08-17T04:27:19.383Z,9.80
2022-08-17T04:29:21.512Z,8.63
2022-08-17T04:31:23.628Z,9.37
2022-08-17T04:33:28.056Z,9.73
2022-08-17T04:35:34.656Z,8.07
2022-08-17T04:37:39.671Z,8.43
2022-08-17T04:40:04.190Z,10.17
2022-08-17T04:42:17.041Z,10.00
2022-08-17T04:44:28.301Z,9.00
2022-08-17T04:46:40.003Z,8.97
2022-08-17T04:48:44.896Z,9.50
2022-08-17T04:50:48.969Z,9.30
2022-08-17T04:52:51.089Z,9.30
2022-08-17T04:54:53.066Z,9.53
2022-08-17T04:56:55.082Z,9.37
2022-08-17T04:59:00.248Z,9.73
2022-08-17T05:01:02.561Z,8.63
2022-08-17T05:03:05.209Z,9.07
2022-08-17T05:05:07.598Z,8.70
2022-08-17T05:07:10.541Z,8.90
2022-08-17T05:09:13.175Z,8.40
2022-08-17T05:11:15.823Z,9.47
2022-08-17T05:13:21.011Z,9.53
2022-08-17T05:15:22.988Z,8.80
2022-08-17T05:17:25.036Z,8.70
2022-08-17T05:19:27.140Z,9.10
2022-08-17T05:21:29.835Z,9.03
2022-08-17T05:23:42.004Z,9.43
2022-08-17T05:25:48.124Z,9.67
2022-08-17T05:27:51.773Z,9.70
2022-08-17T05:29:54.199Z,9.50
2022-08-17T05:31:56.478Z,9.90
2022-08-17T05:33:58.883Z,10.57
2022-08-17T05:36:03.548Z,9.83
2022-08-17T05:38:06.038Z,11.20
2022-08-17T05:40:10.023Z,9.30
2022-08-17T05:42:12.297Z,10.07
2022-08-17T05:44:14.767Z,10.17
2022-08-17T05:46:23.839Z,9.80
2022-08-17T05:48:39.396Z,9.23
2022-08-17T05:51:03.959Z,10.33
2022-08-17T05:53:06.966Z,10.13
2022-08-17T05:55:18.040Z,9.90
2022-08-17T05:57:53.375Z,10.00
2022-08-17T06:00:26.280Z,9.83
2022-08-17T06:02:55.093Z,9.50
2022-08-17T06:05:02.795Z,9.80
2022-08-17T06:07:11.687Z,9.77
2022-08-17T06:09:33.990Z,9.40
2022-08-17T06:12:01.683Z,8.60
2022-08-17T06:14:07.576Z,8.40
2022-08-17T06:16:33.116Z,8.33
2022-08-17T06:19:00.879Z,8.27
2022-08-17T06:21:05.398Z,8.80
2022-08-17T06:23:11.462Z,8.27
2022-08-17T06:25:15.449Z,8.60
2022-08-17T06:27:30.342Z,8.77
2022-08-17T06:29:58.518Z,8.13
2022-08-17T06:32:02.462Z,8.07
2022-08-17T06:34:07.132Z,8.93
2022-08-17T06:36:40.307Z,6.77
2022-08-17T06:38:51.836Z,7.77
2022-08-17T06:41:02.465Z,8.07
2022-08-17T06:43:32.701Z,8.57
2022-08-17T06:45:38.895Z,7.30
2022-08-17T06:47:51.476Z,7.50
2022-08-17T06:50:07.459Z,7.67
2022-08-17T06:52:46.716Z,7.13
2022-08-17T06:55:41.351Z,6.20
2022-08-17T06:57:50.326Z,6.67
2022-08-17T07:00:08.236Z,6.60
2022-08-17T07:02:18.308Z,7.20
2022-08-17T07:04:24.075Z,6.73
2022-08-17T07:06:37.108Z,6.03
2022-08-17T07:09:01.542Z,7.10
2022-08-17T07:11:11.020Z,6.87
2022-08-17T07:13:25.406Z,6.60
2022-08-17T07:15:34.102Z,6.80
2022-08-17T07:17:47.335Z,5.87
2022-08-17T07:19:56.019Z,5.70
2022-08-17T07:22:17.108Z,6.03
2022-08-17T07:24:29.652Z,4.90
2022-08-17T07:26:32.609Z,6.57
2022-08-17T07:28:35.949Z,5.53
2022-08-17T07:30:54.128Z,5.40
2022-08-17T07:33:02.137Z,5.03
2022-08-17T07:35:31.491Z,5.30
2022-08-17T07:37:55.683Z,4.80
2022-08-17T07:40:14.892Z,4.17
2022-08-17T07:42:18.725Z,5.20
2022-08-17T07:44:20.751Z,5.10
2022-08-17T07:46:51.102Z,5.50
2022-08-17T07:48:58.126Z,4.47
2022-08-17T07:51:00.493Z,4.37
2022-08-17T07:53:23.808Z,4.40
2022-08-17T07:55:31.298Z,4.50
2022-08-17T07:57:36.057Z,4.80
2022-08-17T07:59:40.829Z,4.03
2022-08-17T08:02:08.155Z,3.90
2022-08-17T08:07:01.513Z,4.10
2022-08-17T08:09:03.711Z,4.00
2022-08-17T08:11:12.601Z,3.93
2022-08-17T08:13:20.495Z,3.70
2022-08-17T08:15:25.663Z,4.10
2022-08-17T08:17:32.256Z,4.27
2022-08-17T08:19:34.781Z,4.60
2022-08-17T08:21:45.652Z,4.70
2022-08-17T08:23:47.647Z,5.03
2022-08-17T08:26:23.069Z,5.13
2022-08-17T08:28:25.026Z,4.70
2022-08-17T08:30:28.325Z,4.90
2022-08-17T08:32:48.009Z,5.80
2022-08-17T08:35:03.754Z,4.50
2022-08-17T08:37:32.607Z,5.40
2022-08-17T08:39:58.325Z,5.23
2022-08-17T08:42:44.488Z,4.80
2022-08-17T08:45:03.981Z,4.80
2022-08-17T08:47:15.267Z,5.00
2022-08-17T08:49:58.969Z,5.03
2022-08-17T08:51:59.053Z,5.00
2022-08-17T08:54:38.209Z,4.90
2022-08-17T08:56:59.191Z,5.30
2022-08-17T08:59:12.217Z,5.40
2022-08-17T09:01:24.409Z,5.17
2022-08-17T09:04:20.021Z,5.17
2022-08-17T09:06:48.835Z,5.60
2022-08-17T09:09:07.550Z,5.17
2022-08-17T09:11:12.534Z,5.40
2022-08-17T09:13:59.435Z,5.50
2022-08-17T09:16:07.249Z,4.70
2022-08-17T09:19:00.518Z,5.10
2022-08-17T09:20:50.056Z,5.60
2022-08-17T09:23:21.234Z,6.70
2022-08-17T09:25:29.872Z,4.87
2022-08-17T09:27:51.030Z,4.77
2022-08-17T09:29:57.862Z,5.00
2022-08-17T09:32:03.824Z,5.20
2022-08-17T09:34:13.049Z,5.07
2022-08-17T09:36:24.212Z,5.70
2022-08-17T09:38:41.965Z,4.67
2022-08-17T09:40:49.965Z,5.17
2022-08-17T09:43:08.337Z,4.53
2022-08-17T09:45:30.910Z,5.30
2022-08-17T09:47:43.502Z,5.60
2022-08-17T09:49:50.848Z,5.17
2022-08-17T09:51:58.798Z,5.37
2022-08-17T09:54:21.084Z,5.10
2022-08-17T09:56:46.151Z,5.80
2022-08-17T09:59:17.788Z,6.10
2022-08-17T10:01:43.738Z,5.37
2022-08-17T10:03:49.073Z,5.40
2022-08-17T10:06:00.180Z,5.63
2022-08-17T10:08:09.299Z,6.00
2022-08-17T10:10:16.500Z,5.40
2022-08-17T10:12:29.820Z,5.23
2022-08-17T10:14:58.476Z,4.40
2022-08-17T10:17:31.214Z,5.30
2022-08-17T10:19:39.941Z,5.03
2022-08-17T10:22:14.904Z,5.43
2022-08-17T10:25:13.513Z,5.53
2022-08-17T10:27:15.992Z,5.90
2022-08-17T10:29:23.178Z,5.80
2022-08-17T10:31:35.498Z,5.47
2022-08-17T10:33:56.583Z,5.53
2022-08-17T10:36:10.594Z,6.07
2022-08-17T10:38:19.614Z,6.40
2022-08-17T10:40:33.056Z,5.50
2022-08-17T10:42:49.073Z,6.10
2022-08-17T10:44:56.575Z,5.57
2022-08-17T10:47:10.600Z,5.73
2022-08-17T10:49:14.638Z,6.07
2022-08-17T10:51:40.012Z,6.00
2022-08-17T10:53:42.108Z,5.60
2022-08-17T10:56:18.950Z,6.20
2022-08-17T10:58:22.180Z,5.70
2022-08-17T11:00:27.825Z,5.40
2022-08-17T11:02:40.731Z,4.80
2022-08-17T11:05:06.323Z,5.17
2022-08-17T11:07:14.719Z,4.60
2022-08-17T11:09:39.025Z,5.20
2022-08-17T11:12:15.534Z,3.73
2022-08-17T11:14:29.533Z,4.80
2022-08-17T11:16:57.635Z,5.03
2022-08-17T11:19:36.908Z,4.33
2022-08-17T11:22:17.189Z,4.23
2022-08-17T11:24:40.000Z,3.80
2022-08-17T11:27:07.708Z,3.80
2022-08-17T11:29:25.644Z,4.20
2022-08-17T11:31:41.396Z,4.17
2022-08-17T11:33:44.941Z,3.70
2022-08-17T11:35:51.735Z,3.77
2022-08-17T11:37:59.595Z,4.13
2022-08-17T11:40:24.783Z,4.13
2022-08-17T11:42:30.039Z,4.00
2022-08-17T11:44:56.334Z,3.80
2022-08-17T11:47:35.973Z,3.30
2022-08-17T11:50:25.696Z,4.17
2022-08-17T11:52:41.268Z,2.90
2022-08-17T11:54:48.841Z,3.40
2022-08-17T11:56:51.876Z,3.40
2022-08-17T11:58:54.318Z,3.40
2022-08-17T12:01:03.033Z,3.80
2022-08-17T12:03:30.541Z,3.60
2022-08-17T12:05:33.885Z,3.57
2022-08-17T12:08:01.461Z,4.00
2022-08-17T12:10:05.880Z,3.70
2022-08-17T12:12:20.639Z,3.70
2022-08-17T12:14:45.090Z,3.60
2022-08-17T12:17:09.240Z,3.40
2022-08-17T12:19:20.308Z,4.60
2022-08-17T12:21:40.730Z,3.60
2022-08-17T12:23:52.077Z,4.00
2022-08-17T12:26:00.664Z,3.57
2022-08-17T12:28:04.827Z,3.47
2022-08-17T12:30:14.663Z,3.60
2022-08-17T12:32:20.081Z,3.50
2022-08-17T12:34:27.166Z,3.57
2022-08-17T12:36:29.627Z,3.13
2022-08-17T12:38:35.022Z,3.73
2022-08-17T12:40:37.378Z,3.80
2022-08-17T12:42:40.418Z,3.73
2022-08-17T12:44:50.160Z,3.30
2022-08-17T12:46:53.201Z,3.97
2022-08-17T12:49:22.943Z,3.77
2022-08-17T12:51:25.651Z,3.17
2022-08-17T12:53:30.951Z,3.60
2022-08-17T12:55:36.929Z,4.17
2022-08-17T12:57:39.098Z,3.97
2022-08-17T12:59:44.202Z,3.87
2022-08-17T13:01:47.814Z,3.90
2022-08-17T13:03:53.179Z,4.03
2022-08-17T13:06:06.486Z,3.63
2022-08-17T13:08:30.874Z,3.77
2022-08-17T13:10:35.946Z,3.60
2022-08-17T13:12:39.163Z,3.80
2022-08-17T13:14:46.012Z,3.87
2022-08-17T13:17:00.042Z,3.40
2022-08-17T13:19:12.810Z,3.87
2022-08-17T13:21:27.078Z,3.50
2022-08-17T13:23:32.263Z,3.60
2022-08-17T13:25:34.851Z,3.17
2022-08-17T13:27:38.320Z,3.40
2022-08-17T13:29:53.706Z,3.63
2022-08-17T13:32:13.237Z,3.30
2022-08-17T13:34:15.896Z,3.40
2022-08-17T13:36:30.419Z,3.20
2022-08-17T13:38:43.968Z,4.07
2022-08-17T13:40:50.568Z,3.73
2022-08-17T13:42:54.341Z,3.80
2022-08-17T13:44:57.548Z,3.10
2022-08-17T13:47:01.091Z,3.43
2022-08-17T13:49:10.206Z,3.80
2022-08-17T13:51:20.412Z,3.50
2022-08-17T13:53:50.570Z,3.40
2022-08-17T13:56:00.853Z,3.30
2022-08-17T13:58:07.080Z,3.40
2022-08-17T14:00:30.202Z,3.83
2022-08-17T14:02:32.342Z,3.27
2022-08-17T14:04:35.517Z,3.87
2022-08-17T14:06:53.302Z,3.43
2022-08-17T14:08:56.191Z,3.90
2022-08-17T14:10:58.852Z,3.40
2022-08-17T14:13:00.978Z,3.50
2022-08-17T14:15:04.386Z,3.80
2022-08-17T14:17:07.860Z,3.33
2022-08-17T14:19:13.999Z,3.70
2022-08-17T14:21:17.530Z,3.87
2022-08-17T14:23:21.017Z,3.13
2022-08-17T14:25:26.394Z,3.37
2022-08-17T14:27:31.910Z,3.47
2022-08-17T14:29:34.417Z,3.37
2022-08-17T14:31:37.661Z,3.10
2022-08-17T14:33:40.164Z,3.67
2022-08-17T14:35:42.397Z,4.10
2022-08-17T14:37:45.793Z,3.67
2022-08-17T14:39:48.305Z,3.40
2022-08-17T14:41:50.736Z,3.50
2022-08-17T14:43:53.492Z,3.30
2022-08-17T14:45:55.727Z,3.70
2022-08-17T14:47:57.963Z,3.40
2022-08-17T14:50:02.071Z,3.70
2022-08-17T14:52:04.347Z,3.57
2022-08-17T14:54:06.538Z,4.00
2022-08-17T14:56:09.267Z,3.70
2022-08-17T14:58:11.756Z,3.80
2022-08-17T15:00:16.579Z,3.70
2022-08-17T15:02:19.714Z,3.73
2022-08-17T15:04:21.928Z,3.80
2022-08-17T15:06:24.824Z,4.20
2022-08-17T15:08:28.333Z,3.50
2022-08-17T15:10:31.541Z,4.27
2022-08-17T15:12:34.688Z,3.90
2022-08-17T15:14:36.935Z,3.50
2022-08-17T15:16:39.245Z,4.40
2022-08-17T15:18:41.536Z,3.90
2022-08-17T15:20:44.510Z,4.20
2022-08-17T15:22:55.007Z,3.60
2022-08-17T15:24:57.494Z,3.93
2022-08-17T15:26:59.659Z,4.03
2022-08-17T15:29:01.928Z,4.30
2022-08-17T15:31:05.791Z,4.00
2022-08-17T15:33:07.987Z,3.83
2022-08-17T15:35:13.359Z,3.80
2022-08-17T15:37:15.579Z,3.70
2022-08-17T15:39:19.560Z,4.07
2022-08-17T15:41:28.283Z,3.73
2022-08-17T15:43:34.928Z,4.20
2022-08-17T15:45:37.881Z,3.67
2022-08-17T15:47:40.971Z,4.10
2022-08-17T15:49:48.430Z,3.87
2022-08-17T15:51:58.584Z,4.77
2022-08-17T15:54:18.846Z,4.20
2022-08-17T15:56:34.804Z,3.90
2022-08-17T15:58:55.352Z,3.87
2022-08-17T16:01:17.047Z,4.40
2022-08-17T16:03:58.211Z,7.23
2022-08-17T16:05:59.450Z,4.70
2022-08-17T16:08:04.803Z,3.87
2022-08-17T16:10:08.350Z,4.60
2022-08-17T16:12:19.702Z,4.07
2022-08-17T16:14:22.406Z,4.57
2022-08-17T16:16:26.256Z,4.80
2022-08-17T16:18:31.409Z,4.20
2022-08-17T16:20:33.720Z,3.80
2022-08-17T16:22:39.528Z,3.80
2022-08-17T16:24:47.851Z,4.53
2022-08-17T16:26:59.757Z,4.33
2022-08-17T16:29:06.684Z,4.07
2022-08-17T16:31:09.373Z,4.80
2022-08-17T16:33:11.991Z,4.63
2022-08-17T16:35:18.109Z,4.47
2022-08-17T16:37:20.335Z,5.43
2022-08-17T16:39:26.856Z,5.50
2022-08-17T16:41:45.297Z,4.23
2022-08-17T16:43:51.019Z,4.50
2022-08-17T16:45:53.187Z,4.83
2022-08-17T16:48:01.688Z,5.13
2022-08-17T16:50:06.979Z,4.37
2022-08-17T16:52:10.580Z,4.77
2022-08-17T16:54:17.606Z,4.43
2022-08-17T16:56:20.698Z,4.57
2022-08-17T16:58:23.364Z,4.87
2022-08-17T17:00:25.581Z,4.37
2022-08-17T17:02:33.375Z,4.60
2022-08-17T17:04:48.302Z,5.10
2022-08-17T17:07:07.641Z,5.27
2022-08-17T17:09:17.579Z,7.50
2022-08-17T17:11:33.647Z,7.40
2022-08-17T17:13:51.572Z,5.47
2022-08-17T17:15:58.712Z,7.10
2022-08-17T17:18:06.810Z,6.00
2022-08-17T17:20:18.956Z,6.20
2022-08-17T17:22:29.597Z,6.60
2022-08-17T17:25:04.420Z,5.53
2022-08-17T17:27:26.823Z,5.63
2022-08-17T17:29:28.957Z,8.17
2022-08-17T17:32:17.236Z,8.77
2022-08-17T17:34:19.867Z,6.50
2022-08-17T17:36:40.483Z,5.73
2022-08-17T17:38:48.568Z,5.60
2022-08-17T17:40:54.392Z,6.33
2022-08-17T17:43:34.810Z,4.83
2022-08-17T17:45:40.215Z,5.20
2022-08-17T17:47:42.939Z,5.00
2022-08-17T17:49:48.628Z,5.03
2022-08-17T17:52:11.033Z,5.20
2022-08-17T17:54:32.220Z,6.50
2022-08-17T17:56:51.949Z,5.80
2022-08-17T17:59:17.142Z,6.30
2022-08-17T18:01:22.806Z,5.47
2022-08-17T18:03:54.123Z,6.07
2022-08-17T18:06:00.647Z,6.97
2022-08-17T18:08:32.298Z,6.03
2022-08-17T18:10:50.206Z,5.80
2022-08-17T18:13:11.996Z,7.10
2022-08-17T18:15:29.670Z,6.40
2022-08-17T18:17:33.488Z,6.73
2022-08-17T18:19:38.872Z,6.30
2022-08-17T18:21:46.474Z,7.27
2022-08-17T18:23:53.042Z,5.63
2022-08-17T18:25:56.115Z,6.17
2022-08-17T18:27:58.324Z,6.50
2022-08-17T18:30:08.745Z,6.03
2022-08-17T18:32:17.247Z,5.53
2022-08-17T18:36:47.550Z,5.97
2022-08-17T18:38:50.300Z,6.63
2022-08-17T18:41:01.619Z,6.10
2022-08-17T18:43:10.768Z,6.20
2022-08-17T18:45:14.298Z,5.83
2022-08-17T18:47:24.907Z,6.33
2022-08-17T18:49:28.819Z,5.60
2022-08-17T18:51:41.094Z,6.53
2022-08-17T18:53:44.748Z,5.80
2022-08-17T18:55:46.935Z,6.50
2022-08-17T18:57:53.137Z,6.00
2022-08-17T18:59:55.402Z,6.10
2022-08-17T19:02:03.258Z,5.47
2022-08-17T19:04:27.489Z,6.30
2022-08-17T19:06:35.849Z,6.90
2022-08-17T19:08:38.214Z,6.23
2022-08-17T19:10:46.157Z,6.63
2022-08-17T19:13:00.353Z,6.60
2022-08-17T19:15:03.792Z,6.17
2022-08-17T19:17:14.991Z,6.90
2022-08-17T19:19:28.164Z,6.40
2022-08-17T19:21:37.698Z,7.27
2022-08-17T19:24:03.231Z,7.17
2022-08-17T19:26:50.825Z,7.37
2022-08-17T19:28:44.997Z,7.87
2022-08-17T19:30:55.914Z,6.40
2022-08-17T19:32:58.519Z,6.70
2022-08-17T19:35:01.615Z,6.80
2022-08-17T19:37:11.663Z,7.03
2022-08-17T19:39:45.617Z,7.20
2022-08-17T19:41:56.621Z,6.67
2022-08-17T19:44:12.091Z,6.93
2022-08-17T19:46:50.447Z,7.70
2022-08-17T19:49:08.112Z,8.03
2022-08-17T19:51:48.116Z,8.30
2022-08-17T19:54:05.373Z,8.60
2022-08-17T19:56:46.377Z,9.67
2022-08-17T19:59:14.001Z,8.80
2022-08-17T20:01:34.031Z,9.50
2022-08-17T20:03:59.334Z,8.80
2022-08-17T20:06:13.763Z,8.63
2022-08-17T20:08:23.397Z,9.70
2022-08-17T20:10:39.477Z,8.93
2022-08-17T20:12:42.888Z,8.73
2022-08-17T20:14:53.502Z,8.20
2022-08-17T20:17:02.480Z,8.80
2022-08-17T20:19:27.210Z,8.50
2022-08-17T20:21:42.730Z,8.60
2022-08-17T20:23:50.750Z,8.30
2022-08-17T20:26:22.833Z,8.30
2022-08-17T20:28:29.739Z,8.20
2022-08-17T20:30:51.341Z,7.93
2022-08-17T20:32:56.796Z,8.50
2022-08-17T20:35:32.247Z,9.10
2022-08-17T20:37:36.028Z,8.77
2022-08-17T20:39:42.528Z,7.73
2022-08-17T20:42:22.968Z,9.03
2022-08-17T20:44:36.259Z,8.27
2022-08-17T20:46:38.473Z,7.80
2022-08-17T20:48:47.240Z,9.30
2022-08-17T20:50:56.614Z,6.80
2022-08-17T20:53:00.994Z,8.70
2022-08-17T20:55:04.491Z,7.70
2022-08-17T20:57:13.764Z,7.30
2022-08-17T20:59:25.994Z,8.13
2022-08-17T21:01:38.894Z,7.70
2022-08-17T21:03:51.192Z,7.80
2022-08-17T21:06:00.774Z,8.00
2022-08-17T21:08:17.031Z,7.60
2022-08-17T21:10:25.147Z,8.20
2022-08-17T21:12:50.640Z,7.50
2022-08-17T21:15:04.732Z,7.37
2022-08-17T21:17:34.358Z,7.60
2022-08-17T21:20:11.385Z,7.70
2022-08-17T21:22:31.119Z,7.60
2022-08-17T21:24:53.102Z,8.47
2022-08-17T21:27:27.195Z,8.00
2022-08-17T21:29:33.903Z,8.20
2022-08-17T21:31:48.825Z,8.43
2022-08-17T21:34:16.910Z,7.13
2022-08-17T21:36:24.948Z,8.57
2022-08-17T21:38:39.991Z,7.90
2022-08-17T21:40:46.957Z,8.80
2022-08-17T21:42:53.848Z,8.10
2022-08-17T21:45:12.809Z,8.10
2022-08-17T21:47:29.897Z,8.53
2022-08-17T21:49:37.839Z,8.90
2022-08-17T21:51:50.049Z,8.70
2022-08-17T21:53:55.846Z,9.67
2022-08-17T21:55:58.096Z,8.57
2022-08-17T21:58:19.832Z,9.50
2022-08-17T22:00:28.090Z,9.73
2022-08-17T22:02:34.352Z,8.43
2022-08-17T22:04:39.041Z,9.20
2022-08-17T22:06:56.744Z,8.77
2022-08-17T22:09:17.720Z,9.13
2022-08-17T22:11:19.927Z,9.60
2022-08-17T22:13:24.271Z,9.63
2022-08-17T22:15:31.765Z,9.70
2022-08-17T22:17:38.572Z,9.67
2022-08-17T22:19:42.558Z,9.60
2022-08-17T22:21:44.792Z,9.67
2022-08-17T22:24:06.055Z,8.83
2022-08-17T22:26:12.753Z,9.57
2022-08-17T22:28:38.398Z,9.30
2022-08-17T22:31:00.293Z,9.83
2022-08-17T22:33:35.156Z,9.47
2022-08-17T22:35:42.943Z,8.70
2022-08-17T22:37:45.521Z,9.23
2022-08-17T22:39:57.846Z,9.53
2022-08-17T22:42:00.966Z,9.70
2022-08-17T22:44:14.257Z,9.67
2022-08-17T22:46:16.639Z,9.20
2022-08-17T22:48:22.386Z,9.47
2022-08-17T22:50:30.810Z,10.80
2022-08-17T22:53:03.938Z,9.63
2022-08-17T22:55:33.472Z,9.40
2022-08-17T22:57:54.962Z,9.80
2022-08-17T22:59:57.591Z,8.53
2022-08-17T23:02:25.592Z,9.60
2022-08-17T23:04:38.108Z,9.70
2022-08-17T23:06:44.253Z,9.83
2022-08-17T23:08:54.692Z,10.03
2022-08-17T23:10:57.205Z,9.27
2022-08-17T23:13:01.851Z,10.13
2022-08-17T23:15:07.226Z,9.30
2022-08-17T23:17:09.308Z,9.00
2022-08-17T23:19:13.821Z,9.57
2022-08-17T23:21:18.106Z,9.50
2022-08-17T23:23:28.795Z,9.37
2022-08-17T23:25:32.542Z,9.77
2022-08-17T23:27:34.618Z,9.10
2022-08-17T23:29:39.418Z,9.97
2022-08-17T23:31:41.942Z,10.20
2022-08-17T23:33:44.163Z,9.10
2022-08-17T23:35:46.274Z,9.30
2022-08-17T23:37:48.310Z,10.03
2022-08-17T23:39:50.364Z,10.23
2022-08-17T23:41:53.568Z,9.73
2022-08-17T23:43:55.668Z,9.77
2022-08-17T23:45:59.803Z,9.90
2022-08-17T23:48:04.888Z,10.73
2022-08-17T23:50:07.962Z,10.60
2022-08-17T23:52:12.538Z,10.40
2022-08-17T23:54:41.563Z,9.67
2022-08-17T23:56:46.884Z,10.03
2022-08-17T23:58:48.901Z,9.77
